Time;durP1;ratioP1;P1;durP2;ratioP2;P2;SDS_P1;SDS_P2;PMS_P1;PMS_P2;Temp;Humidity;BMP_temperature;BMP_pressure;BME280_temperature;BME280_humidity;BME280_pressure;Samples;Min_cycle;Max_cycle;Signal;HPM_P1;HPM_P2
2024/02/11 00:01:02;;;;;;;55.05;24.98;;;;;;;;;;4984027;28;20413;-67
2024/02/11 00:03:28;;;;;;;58.05;25.15;;;;;;;;;;4979173;28;20045;-67
2024/02/11 00:05:56;;;;;;;56.50;25.05;;;;;;;;;;4985138;28;20041;-66
2024/02/11 00:08:25;;;;;;;57.42;24.10;;;;;;;;;;4980266;28;20050;-65
2024/02/11 00:10:53;;;;;;;63.50;27.50;;;;;;;;;;4977716;28;20047;-66
2024/02/11 00:13:20;;;;;;;65.47;28.13;;;;;;;;;;4980571;28;20038;-66
2024/02/11 00:15:46;;;;;;;60.60;26.13;;;;;;;;;;4987058;28;20034;-66
2024/02/11 00:18:12;;;;;;;59.75;26.30;;;;;;;;;;4985071;28;20046;-67
2024/02/11 00:20:39;;;;;;;58.80;25.80;;;;;;;;;;4974846;28;20047;-66
2024/02/11 00:23:05;;;;;;;64.57;26.00;;;;;;;;;;4987288;28;20402;-66
2024/02/11 00:25:32;;;;;;;62.38;26.02;;;;;;;;;;4981404;28;20034;-67
2024/02/11 00:27:59;;;;;;;56.78;24.83;;;;;;;;;;4985843;28;20433;-67
2024/02/11 00:30:27;;;;;;;58.85;25.48;;;;;;;;;;4967456;28;20398;-66
2024/02/11 00:32:56;;;;;;;50.70;21.95;;;;;;;;;;4986287;28;20046;-67
2024/02/11 00:35:27;;;;;;;46.20;20.80;;;;;;;;;;4982561;28;20047;-66
2024/02/11 00:37:53;;;;;;;46.55;21.35;;;;;;;;;;4982323;28;20041;-67
2024/02/11 00:40:21;;;;;;;43.58;19.40;;;;;;;;;;4986522;28;20030;-67
2024/02/11 00:42:48;;;;;;;66.75;23.80;;;;;;;;;;4974647;28;20039;-66
2024/02/11 00:45:14;;;;;;;51.33;19.88;;;;;;;;;;4977625;28;20049;-66
2024/02/11 00:47:41;;;;;;;43.78;18.25;;;;;;;;;;4978192;28;20379;-66
2024/02/11 00:50:11;;;;;;;35.92;17.33;;;;;;;;;;4983822;28;20046;-67
2024/02/11 00:52:40;;;;;;;38.60;17.67;;;;;;;;;;4976529;28;20042;-66
2024/02/11 00:55:09;;;;;;;40.05;17.50;;;;;;;;;;4986023;28;20442;-65
2024/02/11 00:57:36;;;;;;;35.70;15.43;;;;;;;;;;4986499;28;20027;-66
2024/02/11 01:00:09;;;;;;;37.53;17.38;;;;;;;;;;4968207;28;20038;-66
2024/02/11 01:02:38;;;;;;;39.53;16.58;;;;;;;;;;4977962;28;20077;-66
2024/02/11 01:05:05;;;;;;;43.28;16.85;;;;;;;;;;4978766;28;20053;-66
2024/02/11 01:07:32;;;;;;;33.63;15.45;;;;;;;;;;4980080;28;20037;-67
2024/02/11 01:09:58;;;;;;;51.38;19.25;;;;;;;;;;4976608;28;20057;-66
2024/02/11 01:12:24;;;;;;;57.70;21.40;;;;;;;;;;4975629;28;20054;-66
2024/02/11 01:14:55;;;;;;;45.35;18.08;;;;;;;;;;4983803;28;20039;-66
2024/02/11 01:17:23;;;;;;;33.92;15.40;;;;;;;;;;4982210;28;20493;-66
2024/02/11 01:19:50;;;;;;;34.75;16.13;;;;;;;;;;4966725;28;20410;-66
2024/02/11 01:22:16;;;;;;;37.70;17.13;;;;;;;;;;4977385;28;20102;-66
2024/02/11 01:24:42;;;;;;;31.08;16.08;;;;;;;;;;4986450;28;20030;-66
2024/02/11 01:27:08;;;;;;;36.25;16.17;;;;;;;;;;4985323;28;20457;-66
2024/02/11 01:29:38;;;;;;;34.88;15.50;;;;;;;;;;4982932;28;20042;-66
2024/02/11 01:32:05;;;;;;;34.95;16.02;;;;;;;;;;4980891;28;20135;-66
2024/02/11 01:34:32;;;;;;;30.80;15.07;;;;;;;;;;4983176;28;20050;-66
2024/02/11 01:36:59;;;;;;;34.92;15.38;;;;;;;;;;4986980;28;20049;-66
2024/02/11 01:39:26;;;;;;;32.90;15.80;;;;;;;;;;4977551;28;20438;-66
2024/02/11 01:41:52;;;;;;;32.65;14.93;;;;;;;;;;4971844;28;20039;-66
2024/02/11 01:44:18;;;;;;;35.83;15.77;;;;;;;;;;4973600;28;20461;-66
2024/02/11 01:46:46;;;;;;;37.15;16.27;;;;;;;;;;4985664;28;20030;-67
2024/02/11 01:49:13;;;;;;;34.53;15.98;;;;;;;;;;4978040;28;20038;-66
2024/02/11 01:51:42;;;;;;;41.47;18.27;;;;;;;;;;4980251;28;20046;-66
2024/02/11 01:54:10;;;;;;;44.05;18.33;;;;;;;;;;4981985;28;20057;-67
2024/02/11 01:56:37;;;;;;;35.53;17.90;;;;;;;;;;4982540;28;20429;-66
2024/02/11 01:59:03;;;;;;;37.92;16.48;;;;;;;;;;4976361;28;20050;-66
2024/02/11 02:01:31;;;;;;;36.25;16.40;;;;;;;;;;4980845;28;20041;-66
2024/02/11 02:03:58;;;;;;;42.58;19.02;;;;;;;;;;4979462;28;20049;-67
2024/02/11 02:06:24;;;;;;;39.30;16.85;;;;;;;;;;4980340;28;20030;-68
2024/02/11 02:08:52;;;;;;;41.78;17.50;;;;;;;;;;4976909;28;20041;-66
2024/02/11 02:11:19;;;;;;;40.80;17.90;;;;;;;;;;4985081;28;20065;-66
2024/02/11 02:13:45;;;;;;;43.47;19.15;;;;;;;;;;4984974;28;20390;-66
2024/02/11 02:16:11;;;;;;;40.70;17.05;;;;;;;;;;4977656;28;20057;-66
2024/02/11 02:18:37;;;;;;;40.72;18.58;;;;;;;;;;4975078;28;20521;-66
2024/02/11 02:21:04;;;;;;;41.20;19.10;;;;;;;;;;4983067;28;20363;-66
2024/02/11 02:23:31;;;;;;;41.20;18.63;;;;;;;;;;4978139;28;20031;-67
2024/02/11 02:25:58;;;;;;;36.08;17.75;;;;;;;;;;4982869;28;20055;-67
2024/02/11 02:28:24;;;;;;;39.38;17.13;;;;;;;;;;4981594;28;20518;-67
2024/02/11 02:30:50;;;;;;;36.60;16.23;;;;;;;;;;4980932;28;20045;-66
2024/02/11 02:33:16;;;;;;;38.42;17.70;;;;;;;;;;4988706;28;20031;-67
2024/02/11 02:35:42;;;;;;;37.13;16.02;;;;;;;;;;4985025;28;20034;-66
2024/02/11 02:38:08;;;;;;;33.15;14.85;;;;;;;;;;4964224;28;20043;-65
2024/02/11 02:40:34;;;;;;;26.50;11.82;;;;;;;;;;4981699;28;20493;-65
2024/02/11 02:43:07;;;;;;;18.42;8.23;;;;;;;;;;4973353;28;20039;-65
2024/02/11 02:45:33;;;;;;;15.05;7.30;;;;;;;;;;4982481;28;20054;-66
2024/02/11 02:47:59;;;;;;;15.50;6.00;;;;;;;;;;4983567;28;20524;-65
2024/02/11 02:50:25;;;;;;;8.02;4.05;;;;;;;;;;4983448;28;20047;-66
2024/02/11 02:52:51;;;;;;;8.00;3.67;;;;;;;;;;4977863;28;20039;-65
2024/02/11 02:55:17;;;;;;;8.20;2.50;;;;;;;;;;4983535;28;20096;-66
2024/02/11 02:57:44;;;;;;;5.70;2.20;;;;;;;;;;4982121;28;20060;-66
2024/02/11 03:00:10;;;;;;;5.07;1.80;;;;;;;;;;4981531;28;20038;-66
2024/02/11 03:02:36;;;;;;;3.33;1.23;;;;;;;;;;4975289;28;20522;-66
2024/02/11 03:05:05;;;;;;;1.00;0.88;;;;;;;;;;4977376;28;20036;-66
2024/02/11 03:07:31;;;;;;;0.77;0.70;;;;;;;;;;4980878;28;20410;-66
2024/02/11 03:09:59;;;;;;;1.27;0.90;;;;;;;;;;4980205;28;20057;-66
2024/02/11 03:12:25;;;;;;;0.82;0.70;;;;;;;;;;4980504;28;20041;-66
2024/02/11 03:14:51;;;;;;;1.08;0.63;;;;;;;;;;4987293;28;20422;-65
2024/02/11 03:17:17;;;;;;;1.05;0.60;;;;;;;;;;4986127;28;20049;-66
2024/02/11 03:19:43;;;;;;;0.40;0.40;;;;;;;;;;4985231;28;20041;-65
2024/02/11 03:22:13;;;;;;;0.77;0.60;;;;;;;;;;4983973;28;20041;-66
2024/02/11 03:24:39;;;;;;;;;;;;;;;;;;4986861;28;20437;-65
2024/02/11 03:27:06;;;;;;;0.47;0.47;;;;;;;;;;4984506;28;20301;-65
2024/02/11 03:29:33;;;;;;;1.15;0.55;;;;;;;;;;4984553;28;20050;-66
2024/02/11 03:31:59;;;;;;;0.45;0.45;;;;;;;;;;4978681;28;20046;-64
2024/02/11 03:34:28;;;;;;;2.92;0.57;;;;;;;;;;4987467;28;20053;-66
2024/02/11 03:36:54;;;;;;;0.93;0.43;;;;;;;;;;4986131;28;20049;-65
2024/02/11 03:39:20;;;;;;;0.40;0.30;;;;;;;;;;4984571;28;20039;-66
2024/02/11 03:41:46;;;;;;;0.85;0.60;;;;;;;;;;4987927;28;20034;-66
2024/02/11 03:44:12;;;;;;;0.40;0.40;;;;;;;;;;4986641;28;20038;-66
2024/02/11 03:46:38;;;;;;;0.40;0.40;;;;;;;;;;4982004;28;20038;-66
2024/02/11 03:49:05;;;;;;;0.55;0.55;;;;;;;;;;4983255;28;20513;-66
2024/02/11 03:51:31;;;;;;;0.50;0.50;;;;;;;;;;4981681;28;20054;-65
2024/02/11 03:54:01;;;;;;;0.50;0.50;;;;;;;;;;4975811;28;20042;-66
2024/02/11 03:56:34;;;;;;;0.60;0.60;;;;;;;;;;4988156;28;20034;-65
2024/02/11 03:59:02;;;;;;;4.90;0.80;;;;;;;;;;4980026;28;20414;-65
2024/02/11 04:01:28;;;;;;;0.40;0.40;;;;;;;;;;4979350;28;20047;-65
2024/02/11 04:03:54;;;;;;;1.95;0.40;;;;;;;;;;4985027;28;20046;-66
2024/02/11 04:06:22;;;;;;;0.98;0.60;;;;;;;;;;4981432;28;20046;-65
2024/02/11 04:08:51;;;;;;;0.60;0.50;;;;;;;;;;4978202;28;20113;-65
2024/02/11 04:11:17;;;;;;;0.63;0.50;;;;;;;;;;4978408;28;20402;-65
2024/02/11 04:13:44;;;;;;;0.77;0.50;;;;;;;;;;4980397;28;20026;-65
2024/02/11 04:16:15;;;;;;;0.60;0.60;;;;;;;;;;4984452;28;20154;-67
2024/02/11 04:18:45;;;;;;;0.57;0.57;;;;;;;;;;4984995;28;20046;-66
2024/02/11 04:21:11;;;;;;;0.60;0.60;;;;;;;;;;4984306;28;20054;-64
2024/02/11 04:23:38;;;;;;;0.70;0.68;;;;;;;;;;4986539;28;20061;-67
2024/02/11 04:26:10;;;;;;;0.60;0.60;;;;;;;;;;4983300;28;20046;-65
2024/02/11 04:28:36;;;;;;;0.70;0.70;;;;;;;;;;4981191;28;20049;-67
2024/02/11 04:31:10;;;;;;;1.20;0.70;;;;;;;;;;4985678;28;20030;-66
2024/02/11 04:33:40;;;;;;;0.70;0.70;;;;;;;;;;4990942;28;20042;-64
2024/02/11 04:36:14;;;;;;;0.68;0.68;;;;;;;;;;4981363;28;20050;-66
2024/02/11 04:38:40;;;;;;;0.63;0.63;;;;;;;;;;4985933;28;20411;-66
2024/02/11 04:41:06;;;;;;;0.60;0.60;;;;;;;;;;4982123;28;20054;-66
2024/02/11 04:43:35;;;;;;;4.28;0.70;;;;;;;;;;4981423;28;20034;-66
2024/02/11 04:46:04;;;;;;;0.52;0.50;;;;;;;;;;4981239;28;20042;-66
2024/02/11 04:48:31;;;;;;;0.60;0.60;;;;;;;;;;4980471;28;20050;-67
2024/02/11 04:51:01;;;;;;;0.85;0.68;;;;;;;;;;4979107;28;20043;-66
2024/02/11 04:53:29;;;;;;;;;;;;;;;;;;4984118;28;20058;-65
2024/02/11 04:55:57;;;;;;;0.60;0.60;;;;;;;;;;4979991;28;19914;-65
2024/02/11 04:58:26;;;;;;;0.60;0.60;;;;;;;;;;4979324;28;20410;-66
2024/02/11 05:00:53;;;;;;;0.77;0.77;;;;;;;;;;4977383;28;20042;-66
2024/02/11 05:03:20;;;;;;;0.50;0.50;;;;;;;;;;4980715;28;20061;-66
2024/02/11 05:05:49;;;;;;;0.50;0.50;;;;;;;;;;4977516;28;20034;-65
2024/02/11 05:08:16;;;;;;;0.60;0.60;;;;;;;;;;4976039;28;20046;-66
2024/02/11 05:10:44;;;;;;;0.50;0.50;;;;;;;;;;4975901;28;20043;-66
2024/02/11 05:13:11;;;;;;;0.60;0.60;;;;;;;;;;4984677;28;20038;-67
2024/02/11 05:15:40;;;;;;;1.38;0.50;;;;;;;;;;4978223;28;20039;-66
2024/02/11 05:18:18;;;;;;;0.50;0.50;;;;;;;;;;4982089;28;20042;-66
2024/02/11 05:20:45;;;;;;;0.70;0.60;;;;;;;;;;4981917;28;20030;-66
2024/02/11 05:23:11;;;;;;;0.52;0.50;;;;;;;;;;4981164;28;20433;-66
2024/02/11 05:25:38;;;;;;;0.57;0.50;;;;;;;;;;4985395;28;20050;-66
2024/02/11 05:28:09;;;;;;;0.55;0.55;;;;;;;;;;4979728;28;20051;-67
2024/02/11 05:30:38;;;;;;;;;;;;;;;;;;4975962;28;20047;-66
2024/02/11 05:33:06;;;;;;;0.60;0.50;;;;;;;;;;4979240;28;20404;-66
2024/02/11 05:35:35;;;;;;;0.40;0.40;;;;;;;;;;4985355;28;20042;-66
2024/02/11 05:38:01;;;;;;;0.80;0.77;;;;;;;;;;4975815;28;20498;-66
2024/02/11 05:40:30;;;;;;;0.77;0.60;;;;;;;;;;4981872;28;20039;-66
2024/02/11 05:42:57;;;;;;;0.70;0.60;;;;;;;;;;4982600;28;20651;-65
2024/02/11 05:45:23;;;;;;;0.55;0.55;;;;;;;;;;4977253;28;20049;-65
2024/02/11 05:47:50;;;;;;;0.60;0.60;;;;;;;;;;4980504;28;20038;-65
2024/02/11 05:50:17;;;;;;;1.23;0.70;;;;;;;;;;4975836;28;20474;-66
2024/02/11 05:52:44;;;;;;;1.00;0.70;;;;;;;;;;4978796;28;20049;-66
2024/02/11 05:55:11;;;;;;;0.90;0.80;;;;;;;;;;4973673;28;20042;-65
2024/02/11 05:57:41;;;;;;;1.95;0.82;;;;;;;;;;4973357;28;20069;-67
2024/02/11 06:00:12;;;;;;;0.85;0.70;;;;;;;;;;4977962;28;20498;-66
2024/02/11 06:02:40;;;;;;;1.15;0.93;;;;;;;;;;4975062;28;20046;-66
2024/02/11 06:05:06;;;;;;;0.70;0.70;;;;;;;;;;4976095;28;20038;-66
2024/02/11 06:07:37;;;;;;;0.77;0.70;;;;;;;;;;4975152;28;20557;-65
2024/02/11 06:10:03;;;;;;;1.42;0.90;;;;;;;;;;4977974;28;20034;-65
2024/02/11 06:12:30;;;;;;;1.27;1.05;;;;;;;;;;4976483;28;20054;-65
2024/02/11 06:14:56;;;;;;;1.27;1.02;;;;;;;;;;4982388;28;20521;-64
2024/02/11 06:17:22;;;;;;;1.02;0.80;;;;;;;;;;4984047;28;20046;-64
2024/02/11 06:19:48;;;;;;;0.82;0.80;;;;;;;;;;4985382;28;20059;-63
2024/02/11 06:22:14;;;;;;;1.20;0.90;;;;;;;;;;4963011;28;20418;-63
2024/02/11 06:24:42;;;;;;;2.47;1.10;;;;;;;;;;4982288;28;20057;-64
2024/02/11 06:27:10;;;;;;;1.27;1.10;;;;;;;;;;4981526;28;20050;-64
2024/02/11 06:29:36;;;;;;;1.27;0.82;;;;;;;;;;4980854;28;20521;-63
2024/02/11 06:32:02;;;;;;;2.45;1.27;;;;;;;;;;4984175;28;20406;-63
2024/02/11 06:34:28;;;;;;;1.85;1.20;;;;;;;;;;4985092;28;20042;-65
2024/02/11 06:36:54;;;;;;;2.15;1.45;;;;;;;;;;4982196;28;20042;-64
2024/02/11 06:39:21;;;;;;;2.22;1.40;;;;;;;;;;4982803;28;20513;-63
2024/02/11 06:41:47;;;;;;;3.22;1.73;;;;;;;;;;4982314;28;20035;-63
2024/02/11 06:44:18;;;;;;;2.90;1.50;;;;;;;;;;4987254;28;20070;-64
2024/02/11 06:46:44;;;;;;;2.40;1.75;;;;;;;;;;4981580;28;20063;-64
2024/02/11 06:49:10;;;;;;;2.00;1.52;;;;;;;;;;4985217;28;20073;-64
2024/02/11 06:51:36;;;;;;;2.42;1.60;;;;;;;;;;4985290;28;20050;-65
2024/02/11 06:54:03;;;;;;;2.88;1.75;;;;;;;;;;4980993;28;20482;-64
2024/02/11 06:56:29;;;;;;;3.03;1.92;;;;;;;;;;4980990;28;20054;-65
2024/02/11 06:58:56;;;;;;;2.78;1.73;;;;;;;;;;4980180;28;20034;-65
2024/02/11 07:01:23;;;;;;;2.58;1.58;;;;;;;;;;4981366;28;20038;-63
2024/02/11 07:03:51;;;;;;;2.53;2.00;;;;;;;;;;4987378;28;20046;-64
2024/02/11 07:06:18;;;;;;;3.85;2.22;;;;;;;;;;4978935;28;20064;-62
2024/02/11 07:08:44;;;;;;;3.25;1.90;;;;;;;;;;4986218;28;20038;-65
2024/02/11 07:11:16;;;;;;;3.97;1.92;;;;;;;;;;4988253;28;20502;-65
2024/02/11 07:13:44;;;;;;;3.03;1.58;;;;;;;;;;4985821;28;20030;-65
2024/02/11 07:16:10;;;;;;;2.42;1.70;;;;;;;;;;4984640;28;20545;-64
2024/02/11 07:18:39;;;;;;;2.92;1.98;;;;;;;;;;4981088;28;20509;-64
2024/02/11 07:21:05;;;;;;;3.30;2.20;;;;;;;;;;4986849;28;20039;-64
2024/02/11 07:23:32;;;;;;;4.05;2.55;;;;;;;;;;4982191;28;20071;-64
2024/02/11 07:25:58;;;;;;;3.03;1.85;;;;;;;;;;4986351;28;20062;-65
2024/02/11 07:28:24;;;;;;;4.70;2.00;;;;;;;;;;4981396;28;20050;-65
2024/02/11 07:30:50;;;;;;;3.03;1.75;;;;;;;;;;4989919;28;20046;-65
2024/02/11 07:33:18;;;;;;;3.95;1.70;;;;;;;;;;4982060;28;20027;-65
2024/02/11 07:35:46;;;;;;;2.78;1.75;;;;;;;;;;4989684;28;20038;-65
2024/02/11 07:38:12;;;;;;;3.13;1.80;;;;;;;;;;4987357;28;20073;-64
2024/02/11 07:40:38;;;;;;;3.30;2.00;;;;;;;;;;4988428;28;20502;-65
2024/02/11 07:43:05;;;;;;;3.35;1.92;;;;;;;;;;4981540;28;20061;-65
2024/02/11 07:45:31;;;;;;;4.75;2.20;;;;;;;;;;4982191;28;20045;-66
2024/02/11 07:47:57;;;;;;;5.68;2.80;;;;;;;;;;4980313;28;20046;-65
2024/02/11 07:50:24;;;;;;;5.05;2.72;;;;;;;;;;4978934;28;20042;-65
2024/02/11 07:52:50;;;;;;;4.60;2.55;;;;;;;;;;4981401;28;20441;-65
2024/02/11 07:55:16;;;;;;;4.90;2.47;;;;;;;;;;4979776;28;20049;-64
2024/02/11 07:57:43;;;;;;;5.25;2.78;;;;;;;;;;4979189;28;20038;-65
2024/02/11 08:00:11;;;;;;;6.65;3.38;;;;;;;;;;4979553;28;20490;-64
2024/02/11 08:02:37;;;;;;;8.38;3.65;;;;;;;;;;4978714;28;20513;-64
2024/02/11 08:05:03;;;;;;;5.90;2.90;;;;;;;;;;4979455;28;20042;-64
2024/02/11 08:07:30;;;;;;;4.80;2.80;;;;;;;;;;4977393;28;20529;-64
2024/02/11 08:09:56;;;;;;;4.85;2.60;;;;;;;;;;4979407;28;20038;-66
2024/02/11 08:12:22;;;;;;;4.53;2.55;;;;;;;;;;4986857;28;20077;-65
2024/02/11 08:14:48;;;;;;;8.40;3.25;;;;;;;;;;4984769;28;20033;-64
2024/02/11 08:17:14;;;;;;;7.93;3.70;;;;;;;;;;4978509;28;20422;-65
2024/02/11 08:19:40;;;;;;;8.18;3.55;;;;;;;;;;4981070;28;20042;-65
2024/02/11 08:22:06;;;;;;;6.72;3.42;;;;;;;;;;4978404;28;20061;-65
2024/02/11 08:24:33;;;;;;;7.60;3.53;;;;;;;;;;4982847;28;20042;-66
2024/02/11 08:26:59;;;;;;;8.65;3.60;;;;;;;;;;4985469;28;20037;-64
2024/02/11 08:29:26;;;;;;;7.75;3.58;;;;;;;;;;4988285;28;20062;-63
2024/02/11 08:31:52;;;;;;;8.27;3.50;;;;;;;;;;4984724;28;20050;-64
2024/02/11 08:34:19;;;;;;;10.40;4.55;;;;;;;;;;4984861;28;20198;-63
2024/02/11 08:36:45;;;;;;;11.18;3.72;;;;;;;;;;4977702;28;20026;-63
2024/02/11 08:39:11;;;;;;;11.25;3.92;;;;;;;;;;4980527;28;20061;-64
2024/02/11 08:41:37;;;;;;;7.82;3.40;;;;;;;;;;4981077;28;20054;-65
2024/02/11 08:44:05;;;;;;;5.18;3.15;;;;;;;;;;4984626;28;20430;-65
2024/02/11 08:46:31;;;;;;;6.80;3.67;;;;;;;;;;4978991;28;20038;-65
2024/02/11 08:48:58;;;;;;;9.00;4.03;;;;;;;;;;4983806;28;20030;-65
2024/02/11 08:51:24;;;;;;;10.52;4.50;;;;;;;;;;5001193;23;20043;-59
2024/02/11 08:53:50;;;;;;;9.30;5.25;;;;;;;;;;4983036;28;20030;-60
2024/02/11 08:56:17;;;;;;;11.00;6.25;;;;;;;;;;4978139;28;20042;-59
2024/02/11 08:58:43;;;;;;;20.98;9.70;;;;;;;;;;4974388;28;20411;-58
2024/02/11 09:01:09;;;;;;;11.98;5.43;;;;;;;;;;4980286;28;20418;-59
2024/02/11 09:03:38;;;;;;;9.57;4.50;;;;;;;;;;4975320;28;20030;-58
2024/02/11 09:06:05;;;;;;;9.13;4.68;;;;;;;;;;4973396;28;20049;-59
2024/02/11 09:08:32;;;;;;;12.18;5.70;;;;;;;;;;4977092;28;20057;-59
2024/02/11 09:11:03;;;;;;;12.43;5.30;;;;;;;;;;4971357;28;20488;-59
2024/02/11 09:13:32;;;;;;;14.75;6.10;;;;;;;;;;4972104;28;20049;-59
2024/02/11 09:15:59;;;;;;;14.48;6.95;;;;;;;;;;4971338;28;20031;-59
2024/02/11 09:18:25;;;;;;;8.70;3.75;;;;;;;;;;4977133;28;20047;-59
2024/02/11 09:20:51;;;;;;;9.95;4.38;;;;;;;;;;4973180;28;20049;-59
2024/02/11 09:23:17;;;;;;;7.90;4.13;;;;;;;;;;4978064;28;20608;-59
2024/02/11 09:25:44;;;;;;;9.63;3.63;;;;;;;;;;4979156;28;20026;-59
2024/02/11 09:28:10;;;;;;;10.10;4.00;;;;;;;;;;4973700;28;20035;-58
2024/02/11 09:30:42;;;;;;;8.23;4.15;;;;;;;;;;4978202;28;20058;-60
2024/02/11 09:33:08;;;;;;;9.13;4.10;;;;;;;;;;4976578;28;20039;-59
2024/02/11 09:35:34;;;;;;;8.45;3.90;;;;;;;;;;4975143;28;20043;-58
2024/02/11 09:38:00;;;;;;;6.32;3.35;;;;;;;;;;4976469;28;20383;-59
2024/02/11 09:40:26;;;;;;;5.57;3.47;;;;;;;;;;4975644;28;20034;-59
2024/02/11 09:42:55;;;;;;;8.13;3.90;;;;;;;;;;4970499;28;20540;-58
2024/02/11 09:45:24;;;;;;;8.57;4.07;;;;;;;;;;4977110;28;20045;-59
2024/02/11 09:47:52;;;;;;;8.15;3.70;;;;;;;;;;4977614;28;20054;-59
2024/02/11 09:50:20;;;;;;;10.52;3.65;;;;;;;;;;4978554;28;20050;-60
2024/02/11 09:52:47;;;;;;;7.78;4.13;;;;;;;;;;4979591;28;20050;-58
2024/02/11 09:55:19;;;;;;;5.93;3.45;;;;;;;;;;4975295;28;20054;-59
2024/02/11 09:57:45;;;;;;;8.10;3.90;;;;;;;;;;4977231;28;20034;-59
2024/02/11 10:00:12;;;;;;;6.97;3.63;;;;;;;;;;4975637;28;20434;-59
2024/02/11 10:02:40;;;;;;;7.72;3.42;;;;;;;;;;4974759;28;20054;-59
2024/02/11 10:05:09;;;;;;;5.78;3.63;;;;;;;;;;4981189;28;20046;-59
2024/02/11 10:07:41;;;;;;;;;;;;;;;;;;4982789;28;20046;-59
2024/02/11 10:10:08;;;;;;;9.30;4.07;;;;;;;;;;4979773;28;19941;-60
2024/02/11 10:12:35;;;;;;;9.95;4.35;;;;;;;;;;4979322;28;20486;-60
2024/02/11 10:15:01;;;;;;;6.68;3.55;;;;;;;;;;4978403;28;20117;-60
2024/02/11 10:17:31;;;;;;;8.52;3.53;;;;;;;;;;4977196;28;20557;-59
2024/02/11 10:19:59;;;;;;;7.10;3.47;;;;;;;;;;4981014;28;20034;-59
2024/02/11 10:22:27;;;;;;;9.60;4.30;;;;;;;;;;4982309;28;20469;-60
2024/02/11 10:24:53;;;;;;;6.88;3.33;;;;;;;;;;4984809;28;20625;-60
2024/02/11 10:27:19;;;;;;;6.88;3.50;;;;;;;;;;4984733;28;20238;-60
2024/02/11 10:29:46;;;;;;;8.18;4.00;;;;;;;;;;4977377;28;20360;-59
2024/02/11 10:32:13;;;;;;;7.45;4.03;;;;;;;;;;4979582;28;20047;-59
2024/02/11 10:34:41;;;;;;;10.90;5.38;;;;;;;;;;4978793;28;20047;-59
2024/02/11 10:37:12;;;;;;;7.57;3.70;;;;;;;;;;4983078;28;20054;-59
2024/02/11 10:39:39;;;;;;;6.97;3.60;;;;;;;;;;4981123;28;20030;-59
2024/02/11 10:42:08;;;;;;;7.93;3.20;;;;;;;;;;4984240;28;20042;-61
2024/02/11 10:44:40;;;;;;;10.75;3.25;;;;;;;;;;4981651;28;20038;-60
2024/02/11 10:47:08;;;;;;;5.13;3.38;;;;;;;;;;4983296;28;20043;-60
2024/02/11 10:49:34;;;;;;;7.15;2.75;;;;;;;;;;4981621;28;20391;-60
2024/02/11 10:52:05;;;;;;;8.10;4.25;;;;;;;;;;4980786;28;20417;-60
2024/02/11 10:54:42;;;;;;;9.52;3.38;;;;;;;;;;4989291;28;20049;-60
2024/02/11 10:57:19;;;;;;;6.70;2.65;;;;;;;;;;4983534;28;20050;-60
2024/02/11 11:00:08;;;;;;;4.82;2.65;;;;;;;;;;4987887;28;20042;-60
2024/02/11 11:02:37;;;;;;;5.45;2.97;;;;;;;;;;4978005;28;20042;-59
2024/02/11 11:05:17;;;;;;;7.03;3.00;;;;;;;;;;4976955;28;20039;-59
2024/02/11 11:07:49;;;;;;;3.28;2.38;;;;;;;;;;4979101;28;20035;-60
2024/02/11 11:10:15;;;;;;;5.03;2.50;;;;;;;;;;4977477;28;20513;-61
2024/02/11 11:12:52;;;;;;;5.45;2.67;;;;;;;;;;4979550;28;20039;-60
2024/02/11 11:15:27;;;;;;;4.47;2.55;;;;;;;;;;4979522;28;20063;-60
2024/02/11 11:17:53;;;;;;;7.03;3.50;;;;;;;;;;4978664;28;20035;-60
2024/02/11 11:20:20;;;;;;;4.28;2.22;;;;;;;;;;4980075;28;20051;-60
2024/02/11 11:22:52;;;;;;;4.60;2.83;;;;;;;;;;4975459;28;20047;-60
2024/02/11 11:25:21;;;;;;;3.70;2.22;;;;;;;;;;4977893;28;20034;-60
2024/02/11 11:27:48;;;;;;;4.80;2.63;;;;;;;;;;4983010;28;20042;-59
2024/02/11 11:30:14;;;;;;;4.05;2.35;;;;;;;;;;4976601;28;20313;-59
2024/02/11 11:32:46;;;;;;;4.95;3.08;;;;;;;;;;4976888;28;20046;-59
2024/02/11 11:35:17;;;;;;;3.90;2.53;;;;;;;;;;4976365;28;20046;-60
2024/02/11 11:37:43;;;;;;;5.18;2.97;;;;;;;;;;4977173;28;20057;-60
2024/02/11 11:40:11;;;;;;;3.53;2.28;;;;;;;;;;4979006;28;20043;-60
2024/02/11 11:42:37;;;;;;;4.53;2.25;;;;;;;;;;4978431;28;20038;-59
2024/02/11 11:45:07;;;;;;;4.68;2.50;;;;;;;;;;4979444;28;20073;-60
2024/02/11 11:47:34;;;;;;;4.38;2.55;;;;;;;;;;4980377;28;20388;-61
2024/02/11 11:50:06;;;;;;;7.18;2.72;;;;;;;;;;4978635;28;20038;-60
2024/02/11 11:52:33;;;;;;;6.55;3.08;;;;;;;;;;4976364;28;20051;-58
2024/02/11 11:55:00;;;;;;;4.70;2.80;;;;;;;;;;4973095;28;20046;-59
2024/02/11 11:57:26;;;;;;;4.07;2.30;;;;;;;;;;4973630;28;20042;-58
2024/02/11 11:59:57;;;;;;;3.85;2.22;;;;;;;;;;4974190;28;20031;-58
2024/02/11 12:02:29;;;;;;;5.05;2.80;;;;;;;;;;4973763;28;20053;-58
2024/02/11 12:04:55;;;;;;;6.25;2.90;;;;;;;;;;4975429;28;20054;-58
2024/02/11 12:07:22;;;;;;;4.50;2.88;;;;;;;;;;4976661;28;20035;-59
2024/02/11 12:09:52;;;;;;;3.67;2.53;;;;;;;;;;4976935;28;20487;-60
2024/02/11 12:12:20;;;;;;;;;;;;;;;;;;4974651;28;20045;-59
2024/02/11 12:14:46;;;;;;;6.82;2.92;;;;;;;;;;4974659;28;19914;-59
2024/02/11 12:17:13;;;;;;;4.60;2.65;;;;;;;;;;4985304;28;20410;-59
2024/02/11 12:19:43;;;;;;;5.57;3.45;;;;;;;;;;4976801;28;20043;-59
2024/02/11 12:22:09;;;;;;;3.78;2.40;;;;;;;;;;4972176;28;20039;-60
2024/02/11 12:24:38;;;;;;;3.78;2.20;;;;;;;;;;4976772;28;20041;-60
2024/02/11 12:27:05;;;;;;;3.20;2.35;;;;;;;;;;4979011;28;20033;-59
2024/02/11 12:29:31;;;;;;;3.95;2.63;;;;;;;;;;4972709;28;20061;-61
2024/02/11 12:31:58;;;;;;;3.03;2.38;;;;;;;;;;4983408;28;20030;-60
2024/02/11 12:34:29;;;;;;;3.58;2.38;;;;;;;;;;4979232;28;20418;-59
2024/02/11 12:36:59;;;;;;;3.20;2.20;;;;;;;;;;4981008;28;20042;-59
2024/02/11 12:39:26;;;;;;;3.65;2.60;;;;;;;;;;4972917;28;20050;-59
2024/02/11 12:41:53;;;;;;;4.50;2.65;;;;;;;;;;4976516;28;20505;-59
2024/02/11 12:44:21;;;;;;;6.70;2.90;;;;;;;;;;4979298;28;20420;-59
2024/02/11 12:46:51;;;;;;;12.07;5.43;;;;;;;;;;4983247;28;20050;-59
2024/02/11 12:49:17;;;;;;;4.30;2.10;;;;;;;;;;4972365;28;20031;-59
2024/02/11 12:51:43;;;;;;;5.38;2.40;;;;;;;;;;4977512;28;20037;-60
2024/02/11 12:54:10;;;;;;;4.40;2.47;;;;;;;;;;4979527;28;20395;-58
2024/02/11 12:56:36;;;;;;;4.80;2.38;;;;;;;;;;4982161;28;20405;-58
2024/02/11 12:59:03;;;;;;;3.63;1.80;;;;;;;;;;4975628;28;20042;-59
2024/02/11 13:01:29;;;;;;;2.30;1.80;;;;;;;;;;4974201;28;20034;-58
2024/02/11 13:03:55;;;;;;;2.67;1.83;;;;;;;;;;4974999;28;20045;-59
2024/02/11 13:06:22;;;;;;;3.58;1.95;;;;;;;;;;4974313;28;20053;-59
2024/02/11 13:08:49;;;;;;;2.65;1.50;;;;;;;;;;4974114;28;20046;-60
2024/02/11 13:11:17;;;;;;;2.67;1.63;;;;;;;;;;4974116;28;20046;-59
2024/02/11 13:13:43;;;;;;;3.20;1.45;;;;;;;;;;4976046;28;20054;-59
2024/02/11 13:16:10;;;;;;;2.17;1.80;;;;;;;;;;4973687;28;20034;-59
2024/02/11 13:18:37;;;;;;;3.42;1.77;;;;;;;;;;4975466;28;20493;-58
2024/02/11 13:21:04;;;;;;;2.35;1.33;;;;;;;;;;4978115;28;20038;-59
2024/02/11 13:23:30;;;;;;;2.03;1.17;;;;;;;;;;4975304;28;20039;-58
2024/02/11 13:25:56;;;;;;;3.22;1.83;;;;;;;;;;4978599;28;20038;-59
2024/02/11 13:28:22;;;;;;;1.95;1.13;;;;;;;;;;4979385;28;20049;-59
2024/02/11 13:30:51;;;;;;;2.15;1.65;;;;;;;;;;4982945;28;20050;-59
2024/02/11 13:33:17;;;;;;;2.40;1.30;;;;;;;;;;4975415;28;20050;-59
2024/02/11 13:35:46;;;;;;;3.60;1.40;;;;;;;;;;4975522;28;20030;-59
2024/02/11 13:38:12;;;;;;;3.92;1.73;;;;;;;;;;4973882;28;20039;-59
2024/02/11 13:40:38;;;;;;;2.30;1.38;;;;;;;;;;4971201;28;20050;-58
2024/02/11 13:43:04;;;;;;;3.60;1.58;;;;;;;;;;4975828;28;20034;-58
2024/02/11 13:45:30;;;;;;;2.38;1.40;;;;;;;;;;4977007;28;20417;-58
2024/02/11 13:48:00;;;;;;;1.88;1.20;;;;;;;;;;4980851;28;20046;-58
2024/02/11 13:50:29;;;;;;;3.80;1.20;;;;;;;;;;4973627;28;20049;-58
2024/02/11 13:52:57;;;;;;;2.03;1.00;;;;;;;;;;4971043;28;20043;-58
2024/02/11 13:55:23;;;;;;;2.45;1.20;;;;;;;;;;4985746;28;20030;-58
2024/02/11 13:57:49;;;;;;;3.47;1.40;;;;;;;;;;4978572;28;20043;-57
2024/02/11 14:00:16;;;;;;;2.22;1.13;;;;;;;;;;4973432;28;20442;-58
2024/02/11 14:02:43;;;;;;;3.65;1.10;;;;;;;;;;4972621;28;20045;-60
2024/02/11 14:05:09;;;;;;;4.63;1.60;;;;;;;;;;4974008;28;20046;-59
2024/02/11 14:07:39;;;;;;;3.17;1.83;;;;;;;;;;4971027;28;20034;-59
2024/02/11 14:10:06;;;;;;;2.53;1.65;;;;;;;;;;4975284;28;20030;-59
2024/02/11 14:12:35;;;;;;;1.33;1.05;;;;;;;;;;4975742;28;20066;-60
2024/02/11 14:15:11;;;;;;;2.00;1.30;;;;;;;;;;4972526;28;20053;-59
2024/02/11 14:17:42;;;;;;;4.22;1.60;;;;;;;;;;4974535;28;20054;-59
2024/02/11 14:20:11;;;;;;;3.80;2.03;;;;;;;;;;4977177;28;20038;-59
2024/02/11 14:22:39;;;;;;;2.53;1.52;;;;;;;;;;4974638;28;20050;-59
2024/02/11 14:25:06;;;;;;;2.53;1.83;;;;;;;;;;4973800;28;20034;-58
2024/02/11 14:27:32;;;;;;;2.60;1.80;;;;;;;;;;4970898;28;20039;-59
2024/02/11 14:29:58;;;;;;;3.65;1.60;;;;;;;;;;4973344;28;20039;-59
2024/02/11 14:32:26;;;;;;;2.30;1.20;;;;;;;;;;4972214;28;20054;-59
2024/02/11 14:34:55;;;;;;;1.50;1.10;;;;;;;;;;4981529;28;20046;-59
2024/02/11 14:37:21;;;;;;;2.80;1.13;;;;;;;;;;4974421;28;20042;-59
2024/02/11 14:39:47;;;;;;;1.20;0.93;;;;;;;;;;4975394;28;20494;-59